Time;durP1;ratioP1;P1;durP2;ratioP2;P2;SDS_P1;SDS_P2;PMS_P1;PMS_P2;Temp;Humidity;BMP_temperature;BMP_pressure;BME280_temperature;BME280_humidity;BME280_pressure;Samples;Min_cycle;Max_cycle;Signal;HPM_P1;HPM_P2
2023/03/20 00:00:37;;;;;;;25.55;11.90;;;;;;;6.97;100.00;101828.84;5072952;28;20086;-66
2023/03/20 00:03:02;;;;;;;27.38;11.50;;;;;;;6.98;100.00;101838.53;5069023;28;20043;-66
2023/03/20 00:05:30;;;;;;;26.20;11.75;;;;;;;6.93;100.00;101837.44;5073131;28;20021;-64
2023/03/20 00:07:56;;;;;;;26.02;11.95;;;;;;;6.93;100.00;101835.72;5072952;28;20533;-66
2023/03/20 00:10:29;;;;;;;26.75;11.75;;;;;;;6.94;100.00;101828.72;5072894;28;20031;-66
2023/03/20 00:12:56;;;;;;;26.20;12.18;;;;;;;6.94;100.00;101820.84;5072826;28;20051;-66
2023/03/20 00:15:33;;;;;;;27.40;12.77;;;;;;;6.91;100.00;101833.88;5072750;28;20033;-65
2023/03/20 00:17:58;;;;;;;27.55;12.18;;;;;;;6.95;100.00;101834.03;5072729;28;20024;-65
2023/03/20 00:20:24;;;;;;;26.92;12.25;;;;;;;6.91;100.00;101829.50;5072582;28;20033;-66
2023/03/20 00:22:50;;;;;;;26.75;11.57;;;;;;;6.89;100.00;101825.94;5072881;28;20028;-65
2023/03/20 00:25:18;;;;;;;26.38;12.20;;;;;;;6.87;100.00;101824.09;5072551;28;20032;-65
2023/03/20 00:27:44;;;;;;;25.42;11.45;;;;;;;6.83;100.00;101815.22;5072588;28;20401;-66
2023/03/20 00:30:34;;;;;;;26.20;11.60;;;;;;;6.82;100.00;101813.44;5072922;28;20036;-65
2023/03/20 00:32:59;;;;;;;28.63;12.27;;;;;;;6.73;100.00;101798.22;5072849;28;20025;-65
2023/03/20 00:35:29;;;;;;;27.08;11.88;;;;;;;6.67;100.00;101803.28;5072862;28;20043;-65
2023/03/20 00:37:57;;;;;;;28.05;11.70;;;;;;;6.53;100.00;101800.13;5072484;28;20028;-65
2023/03/20 00:40:30;;;;;;;27.50;12.00;;;;;;;6.37;100.00;101795.19;5072644;28;20073;-65
2023/03/20 00:43:01;;;;;;;28.08;11.95;;;;;;;6.32;100.00;101800.25;5072486;28;20028;-66
2023/03/20 00:45:28;;;;;;;26.83;12.30;;;;;;;6.24;100.00;101797.34;5072503;28;20155;-65
2023/03/20 00:47:56;;;;;;;25.75;11.93;;;;;;;6.19;100.00;101793.66;5072362;28;20033;-65
2023/03/20 00:50:28;;;;;;;26.48;12.18;;;;;;;6.14;100.00;101787.31;5072681;28;20032;-66
2023/03/20 00:52:54;;;;;;;27.58;12.27;;;;;;;6.06;100.00;101784.41;5072663;28;20110;-67
2023/03/20 00:55:22;;;;;;;26.27;11.70;;;;;;;6.02;100.00;101786.88;5072325;28;20058;-66
2023/03/20 00:57:59;;;;;;;26.85;11.80;;;;;;;5.96;100.00;101797.13;5072417;28;20142;-67
2023/03/20 01:00:36;;;;;;;26.00;12.05;;;;;;;5.87;100.00;101800.28;5072539;28;20032;-66
2023/03/20 01:03:12;;;;;;;26.58;12.05;;;;;;;5.75;100.00;101812.09;5072245;28;20034;-67
2023/03/20 01:05:37;;;;;;;27.63;12.35;;;;;;;5.68;100.00;101824.88;5068930;28;20468;-66
2023/03/20 01:08:31;;;;;;;26.10;12.00;;;;;;;5.62;100.00;101833.41;5073691;28;20029;-66
2023/03/20 01:10:57;;;;;;;26.60;11.80;;;;;;;5.52;100.00;101840.00;5068696;28;20075;-66
2023/03/20 01:13:28;;;;;;;26.88;12.55;;;;;;;5.45;100.00;101843.22;5076194;28;20091;-67
2023/03/20 01:15:55;;;;;;;26.92;12.43;;;;;;;5.38;100.00;101842.06;5076201;28;20048;-67
2023/03/20 01:18:22;;;;;;;28.17;12.73;;;;;;;5.30;100.00;101833.00;5076087;28;20059;-66
2023/03/20 01:20:48;;;;;;;27.35;12.50;;;;;;;5.29;100.00;101819.81;5074831;28;20032;-67
2023/03/20 01:23:14;;;;;;;29.00;13.10;;;;;;;5.25;100.00;101810.91;5076056;28;20031;-66
2023/03/20 01:25:40;;;;;;;28.77;12.85;;;;;;;5.26;100.00;101822.28;5075999;28;20029;-68
2023/03/20 01:28:17;;;;;;;28.00;12.70;;;;;;;5.24;100.00;101809.13;5076201;28;20387;-66
2023/03/20 01:30:43;;;;;;;27.17;12.60;;;;;;;5.22;100.00;101814.28;5073468;28;20471;-67
2023/03/20 01:33:20;;;;;;;28.73;13.10;;;;;;;5.20;100.00;101828.19;5075796;28;20032;-67
2023/03/20 01:35:48;;;;;;;28.00;13.05;;;;;;;5.12;100.00;101833.09;5075735;28;20471;-67
2023/03/20 01:38:20;;;;;;;29.08;13.30;;;;;;;5.06;100.00;101819.75;5075965;28;20403;-70
2023/03/20 01:40:58;;;;;;;29.38;13.57;;;;;;;5.02;100.00;101823.06;5075908;28;20028;-70
2023/03/20 01:43:26;;;;;;;29.65;13.98;;;;;;;5.02;100.00;101820.44;5075661;28;20024;-70
2023/03/20 01:46:03;;;;;;;30.80;14.70;;;;;;;5.02;100.00;101829.22;5074238;28;20028;-70
2023/03/20 01:48:50;;;;;;;30.38;14.43;;;;;;;4.98;100.00;101822.03;5075480;28;20033;-70
2023/03/20 01:51:17;;;;;;;30.42;14.65;;;;;;;4.98;100.00;101822.03;5073338;28;20033;-70
2023/03/20 01:53:46;;;;;;;29.98;14.48;;;;;;;5.01;100.00;101816.94;5075655;28;20016;-70
2023/03/20 01:56:14;;;;;;;31.67;15.32;;;;;;;5.05;100.00;101810.06;5075415;28;20017;-70
2023/03/20 01:58:44;;;;;;;33.72;16.00;;;;;;;5.05;100.00;101820.56;5075277;28;20027;-70
2023/03/20 02:01:12;;;;;;;31.17;15.88;;;;;;;5.03;100.00;101815.25;5075722;28;20031;-70
2023/03/20 02:03:39;;;;;;;31.88;16.13;;;;;;;5.00;100.00;101822.09;5075459;28;20021;-70
2023/03/20 02:06:05;;;;;;;32.30;16.30;;;;;;;5.00;100.00;101822.09;5075521;28;20150;-71
2023/03/20 02:08:35;;;;;;;31.27;16.58;;;;;;;5.00;100.00;101809.00;5075363;28;20482;-70
2023/03/20 02:11:01;;;;;;;31.40;16.70;;;;;;;5.01;100.00;101803.81;5075221;28;20042;-70
2023/03/20 02:13:29;;;;;;;32.80;16.75;;;;;;;4.98;100.00;101827.28;5073810;28;20055;-69
2023/03/20 02:16:03;;;;;;;31.65;16.40;;;;;;;4.94;100.00;101841.06;5075354;28;20056;-70
2023/03/20 02:18:30;;;;;;;32.42;16.77;;;;;;;4.89;100.00;101833.03;5074829;28;20036;-70
2023/03/20 02:21:25;;;;;;;31.55;16.67;;;;;;;4.89;100.00;101830.41;5073958;28;20028;-71
2023/03/20 02:24:14;;;;;;;32.80;17.58;;;;;;;4.88;100.00;101832.97;5073375;28;20061;-70
2023/03/20 02:26:51;;;;;;;33.00;17.25;;;;;;;4.86;100.00;101847.69;5071607;28;20507;-70
2023/03/20 02:29:47;;;;;;;33.97;17.23;;;;;;;4.84;100.00;101847.63;5075076;28;20028;-70
2023/03/20 02:32:51;;;;;;;32.97;17.17;;;;;;;4.80;100.00;101845.69;5072264;28;20032;-70
2023/03/20 02:35:49;;;;;;;33.72;17.33;;;;;;;4.80;100.00;101837.84;5072448;28;20082;-66
2023/03/20 02:38:29;;;;;;;34.97;18.73;;;;;;;4.78;100.00;101823.78;5072120;28;20028;-67
2023/03/20 02:41:21;;;;;;;33.55;17.67;;;;;;;4.79;100.00;101815.13;5074914;28;20127;-67
2023/03/20 02:44:15;;;;;;;32.58;17.75;;;;;;;4.81;100.00;101823.03;5050776;28;20036;-66
2023/03/20 02:47:08;;;;;;;33.97;18.65;;;;;;;4.81;100.00;101816.06;5059015;28;20109;-66
2023/03/20 02:49:48;;;;;;;34.50;18.48;;;;;;;4.85;100.00;101812.75;5070662;28;20475;-66
2023/03/20 02:52:32;;;;;;;35.20;17.80;;;;;;;4.86;100.00;101808.41;5070791;28;20056;-65
2023/03/20 02:55:12;;;;;;;33.80;19.08;;;;;;;4.81;100.00;101808.19;5074570;28;20029;-66
2023/03/20 02:57:50;;;;;;;34.10;18.48;;;;;;;4.78;100.00;101813.31;5070851;28;20032;-66
2023/03/20 03:00:27;;;;;;;34.35;18.48;;;;;;;4.75;100.00;101802.72;5071816;28;20040;-67
2023/03/20 03:03:04;;;;;;;34.72;18.38;;;;;;;4.71;100.00;101803.41;5074139;28;20070;-66
2023/03/20 03:05:36;;;;;;;34.28;17.92;;;;;;;4.70;100.00;101804.22;5074083;28;20021;-66
2023/03/20 03:08:04;;;;;;;34.03;18.67;;;;;;;4.67;100.00;101804.09;5074205;28;20063;-67
2023/03/20 03:10:35;;;;;;;34.53;18.67;;;;;;;4.68;100.00;101801.53;5074076;28;20426;-66
2023/03/20 03:13:06;;;;;;;35.38;18.58;;;;;;;4.69;100.00;101798.09;5073781;28;20102;-66
2023/03/20 03:15:36;;;;;;;34.10;18.75;;;;;;;4.71;100.00;101795.53;5073960;28;20024;-66
2023/03/20 03:18:05;;;;;;;33.90;18.40;;;;;;;4.73;100.00;101788.63;5074333;28;20028;-66
2023/03/20 03:20:37;;;;;;;36.05;19.08;;;;;;;4.75;100.00;101776.50;5073794;28;20115;-67
2023/03/20 03:23:03;;;;;;;34.67;18.70;;;;;;;4.81;100.00;101773.25;5073766;28;20446;-65
2023/03/20 03:25:33;;;;;;;34.50;18.30;;;;;;;4.80;100.00;101774.06;5073875;28;20119;-66
2023/03/20 03:28:25;;;;;;;35.50;17.88;;;;;;;4.80;100.00;101764.47;5074084;28;20072;-70
2023/03/20 03:30:52;;;;;;;33.38;18.73;;;;;;;4.82;100.00;101770.72;5071590;28;20024;-70
2023/03/20 03:33:24;;;;;;;34.50;18.73;;;;;;;4.78;100.00;101771.41;5073837;28;20379;-71
2023/03/20 03:35:55;;;;;;;33.53;17.40;;;;;;;4.79;100.00;101783.69;5073526;28;20070;-70
2023/03/20 03:38:29;;;;;;;33.67;18.35;;;;;;;4.77;100.00;101776.56;5073697;28;20035;-71
2023/03/20 03:41:05;;;;;;;32.75;17.27;;;;;;;4.72;100.00;101771.13;5073614;28;20038;-70
2023/03/20 03:43:40;;;;;;;32.05;17.95;;;;;;;4.74;100.00;101766.84;5073400;28;20057;-70
2023/03/20 03:46:32;;;;;;;33.15;17.55;;;;;;;4.77;100.00;101755.63;5069508;28;20082;-70
2023/03/20 03:48:59;;;;;;;30.67;17.13;;;;;;;4.76;100.00;101765.22;5072385;28;20020;-70
2023/03/20 03:51:29;;;;;;;32.40;16.70;;;;;;;4.78;100.00;101760.03;5073542;28;20694;-70
2023/03/20 03:54:01;;;;;;;31.83;16.70;;;;;;;4.76;100.00;101753.81;5073360;28;20043;-70
2023/03/20 03:56:30;;;;;;;32.83;17.30;;;;;;;4.77;100.00;101760.84;5073405;28;20050;-70
2023/03/20 03:59:00;;;;;;;30.73;16.77;;;;;;;4.72;100.00;101756.31;5073069;28;20028;-70
2023/03/20 04:01:27;;;;;;;31.33;16.85;;;;;;;4.74;100.00;101768.59;5073039;28;20032;-70
2023/03/20 04:03:59;;;;;;;32.80;17.55;;;;;;;4.70;100.00;101764.94;5073204;28;20037;-70
2023/03/20 04:06:26;;;;;;;32.65;17.40;;;;;;;4.65;100.00;101761.22;5072976;28;20032;-71
2023/03/20 04:08:52;;;;;;;31.90;17.52;;;;;;;4.65;100.00;101753.38;5072887;28;20032;-70
2023/03/20 04:11:20;;;;;;;31.80;16.38;;;;;;;4.63;100.00;101752.38;5072962;28;20078;-69
2023/03/20 04:13:48;;;;;;;32.30;17.23;;;;;;;4.61;100.00;101747.09;5072869;28;20028;-70
2023/03/20 04:16:14;;;;;;;32.38;16.60;;;;;;;4.65;100.00;101749.00;5073088;28;20420;-70
2023/03/20 04:18:40;;;;;;;32.45;17.42;;;;;;;4.60;100.00;101753.19;5072881;28;20060;-70
2023/03/20 04:21:06;;;;;;;31.65;17.05;;;;;;;4.61;100.00;101743.59;5072846;28;20060;-70
2023/03/20 04:23:32;;;;;;;31.65;17.17;;;;;;;4.58;100.00;101741.72;5072768;28;20029;-69
2023/03/20 04:25:57;;;;;;;32.13;17.58;;;;;;;4.62;100.00;101745.38;5072929;28;20117;-70
2023/03/20 04:28:23;;;;;;;31.40;17.20;;;;;;;4.57;100.00;101745.16;5072702;28;20028;-70
2023/03/20 04:30:56;;;;;;;33.65;17.27;;;;;;;4.51;100.00;101756.28;5072722;28;20479;-66
2023/03/20 04:33:22;;;;;;;30.85;16.75;;;;;;;4.45;100.00;101752.50;5072840;28;20020;-66
2023/03/20 04:35:48;;;;;;;32.05;16.25;;;;;;;4.45;100.00;101750.75;5072826;28;20032;-65
2023/03/20 04:38:14;;;;;;;29.83;16.30;;;;;;;4.41;100.00;101740.97;5072596;28;20070;-66
2023/03/20 04:40:39;;;;;;;31.65;17.17;;;;;;;4.40;100.00;101736.59;5072787;28;20383;-66
2023/03/20 04:43:04;;;;;;;31.70;16.98;;;;;;;4.43;100.00;101741.97;5068007;28;20536;-65
2023/03/20 04:45:30;;;;;;;31.17;16.45;;;;;;;4.41;100.00;101733.13;5072844;28;20033;-65
2023/03/20 04:47:55;;;;;;;33.50;17.35;;;;;;;4.42;100.00;101734.91;5072606;28;20025;-66
2023/03/20 04:50:21;;;;;;;31.35;16.55;;;;;;;4.46;100.00;101725.50;5072378;28;20024;-67
2023/03/20 04:52:46;;;;;;;31.58;16.45;;;;;;;4.44;100.00;101721.91;5072370;28;20033;-65
2023/03/20 04:55:12;;;;;;;32.40;16.98;;;;;;;4.44;100.00;101720.19;5071313;28;20033;-65
2023/03/20 04:57:37;;;;;;;31.60;16.60;;;;;;;4.48;100.00;101719.47;5072397;28;20103;-65
2023/03/20 05:00:03;;;;;;;31.92;16.58;;;;;;;4.52;100.00;101726.63;5072320;28;20040;-65
2023/03/20 05:02:29;;;;;;;31.88;16.70;;;;;;;4.53;100.00;101727.56;5071284;28;20391;-65
2023/03/20 05:04:54;;;;;;;31.80;16.27;;;;;;;4.57;100.00;101736.41;5071023;28;20028;-65
2023/03/20 05:07:20;;;;;;;31.55;16.00;;;;;;;4.52;100.00;101729.25;5072322;28;20032;-65
2023/03/20 05:09:45;;;;;;;30.25;16.00;;;;;;;4.50;100.00;101737.88;5071176;28;20497;-65
2023/03/20 05:12:12;;;;;;;30.45;15.45;;;;;;;4.55;100.00;101731.13;5072091;28;20102;-66
2023/03/20 05:14:37;;;;;;;31.48;16.58;;;;;;;4.54;100.00;101719.75;5072215;28;20037;-69
2023/03/20 05:17:03;;;;;;;30.75;16.33;;;;;;;4.56;100.00;101721.53;5072441;28;20027;-65
2023/03/20 05:19:28;;;;;;;32.13;16.05;;;;;;;4.58;100.00;101719.88;5072070;28;20043;-65
2023/03/20 05:21:54;;;;;;;30.75;16.25;;;;;;;4.61;100.00;101717.41;5072404;28;20107;-66
2023/03/20 05:24:20;;;;;;;31.02;15.60;;;;;;;4.62;100.00;101712.22;5072061;28;20111;-66
2023/03/20 05:26:45;;;;;;;30.90;15.65;;;;;;;4.62;100.00;101716.56;5072119;28;20029;-65
2023/03/20 05:29:11;;;;;;;31.20;15.65;;;;;;;4.64;100.00;101715.78;5072319;28;20052;-68
2023/03/20 05:31:36;;;;;;;30.45;15.40;;;;;;;4.69;100.00;101713.38;5072152;28;20037;-65
2023/03/20 05:34:02;;;;;;;31.73;16.00;;;;;;;4.69;100.00;101722.13;5072014;28;20475;-65
2023/03/20 05:36:27;;;;;;;28.77;15.10;;;;;;;4.70;100.00;101720.38;5071027;28;20111;-66
2023/03/20 05:38:53;;;;;;;30.35;14.82;;;;;;;4.68;100.00;101704.63;5071862;28;20024;-69
2023/03/20 05:41:18;;;;;;;29.60;14.82;;;;;;;4.71;100.00;101709.09;5071941;28;20115;-69
2023/03/20 05:43:43;;;;;;;29.13;14.68;;;;;;;4.72;100.00;101716.13;5072157;28;20028;-69
2023/03/20 05:46:09;;;;;;;31.50;15.50;;;;;;;4.70;100.00;101710.81;5072193;28;20043;-69
2023/03/20 05:48:35;;;;;;;29.42;14.48;;;;;;;4.75;100.00;101716.25;5071859;28;20032;-69
2023/03/20 05:51:01;;;;;;;30.25;15.02;;;;;;;4.71;100.00;101723.06;5072136;28;20368;-69
2023/03/20 05:53:26;;;;;;;28.90;14.48;;;;;;;4.75;100.00;101718.88;5072217;28;20390;-69
2023/03/20 05:55:52;;;;;;;29.15;14.95;;;;;;;4.75;100.00;101734.59;5075625;28;20029;-69
2023/03/20 05:58:17;;;;;;;30.15;14.68;;;;;;;4.77;100.00;101734.66;5075699;28;20024;-69
2023/03/20 06:00:43;;;;;;;28.27;13.88;;;;;;;4.76;100.00;101732.84;5075241;28;20033;-69
2023/03/20 06:03:08;;;;;;;27.80;13.75;;;;;;;4.79;100.00;101741.75;5075555;28;20372;-69
2023/03/20 06:05:35;;;;;;;29.05;13.65;;;;;;;4.84;100.00;101749.81;5075277;28;20055;-69
2023/03/20 06:08:01;;;;;;;28.48;13.90;;;;;;;4.89;100.00;101746.56;5075167;28;20233;-69
2023/03/20 06:10:28;;;;;;;29.05;13.73;;;;;;;4.90;100.00;101744.81;5075378;28;20029;-69
2023/03/20 06:12:55;;;;;;;29.00;14.00;;;;;;;4.93;100.00;101744.06;5075074;28;20056;-69
2023/03/20 06:15:20;;;;;;;29.50;13.85;;;;;;;4.93;100.00;101744.94;5075042;28;20029;-70
2023/03/20 06:17:46;;;;;;;30.85;13.45;;;;;;;4.93;100.00;101744.94;5075392;28;20020;-69
2023/03/20 06:20:11;;;;;;;27.95;12.77;;;;;;;4.96;100.00;101752.03;5075208;28;20060;-69
2023/03/20 06:22:37;;;;;;;28.75;13.55;;;;;;;4.98;100.00;101750.38;5075308;28;20032;-69
2023/03/20 06:25:02;;;;;;;28.20;12.88;;;;;;;5.00;100.00;101751.34;5075107;28;20040;-69
2023/03/20 06:27:29;;;;;;;26.83;12.95;;;;;;;5.03;100.00;101756.72;5074906;28;20427;-71
2023/03/20 06:29:55;;;;;;;27.83;12.77;;;;;;;5.07;100.00;101758.63;5074827;28;20083;-68
2023/03/20 06:32:20;;;;;;;26.88;12.50;;;;;;;5.06;100.00;101752.47;5075266;28;20033;-67
2023/03/20 06:34:46;;;;;;;27.50;13.00;;;;;;;5.10;100.00;101757.84;5073446;28;20031;-66
2023/03/20 06:37:11;;;;;;;26.60;12.20;;;;;;;5.14;100.00;101755.44;5074900;28;20514;-65
2023/03/20 06:39:37;;;;;;;26.67;12.63;;;;;;;5.15;100.00;101756.31;5074855;28;20387;-65
2023/03/20 06:42:02;;;;;;;29.30;12.32;;;;;;;5.19;100.00;101772.22;5074683;28;20029;-66
2023/03/20 06:44:27;;;;;;;27.75;12.60;;;;;;;5.21;100.00;101774.91;5073322;28;20040;-67
2023/03/20 06:46:53;;;;;;;28.55;12.77;;;;;;;5.21;100.00;101785.41;5074635;28;20426;-66
2023/03/20 06:49:18;;;;;;;26.73;12.75;;;;;;;5.26;100.00;101785.59;5064367;28;20372;-68
2023/03/20 06:51:44;;;;;;;28.23;12.80;;;;;;;5.28;100.00;101789.19;5068249;28;20112;-71
2023/03/20 06:54:09;;;;;;;28.92;12.65;;;;;;;5.32;100.00;101796.34;5071502;28;20164;-70
2023/03/20 06:56:35;;;;;;;27.50;12.35;;;;;;;5.30;100.00;101798.91;5068205;28;20403;-71
2023/03/20 06:59:00;;;;;;;26.40;11.98;;;;;;;5.31;100.00;101797.16;5065988;28;20111;-71
2023/03/20 07:01:26;;;;;;;27.45;12.27;;;;;;;5.34;100.00;101799.91;5065089;28;20037;-71
2023/03/20 07:03:52;;;;;;;26.92;12.23;;;;;;;5.39;100.00;101799.28;5081764;28;20483;-72
2023/03/20 07:06:17;;;;;;;27.10;11.85;;;;;;;5.38;100.00;101799.22;5067135;28;20039;-71
2023/03/20 07:08:43;;;;;;;26.23;12.10;;;;;;;5.36;100.00;101803.50;5069311;28;20031;-70
2023/03/20 07:11:08;;;;;;;27.85;11.68;;;;;;;5.39;100.00;101799.28;5076091;28;20078;-70
2023/03/20 07:13:34;;;;;;;28.17;12.70;;;;;;;5.43;100.00;101807.25;5070643;28;20056;-69
2023/03/20 07:16:00;;;;;;;26.75;12.00;;;;;;;5.48;100.00;101809.25;5066508;28;20475;-69
2023/03/20 07:18:26;;;;;;;27.55;12.25;;;;;;;5.55;100.00;101816.53;5070974;28;20056;-70
2023/03/20 07:20:52;;;;;;;27.23;12.27;;;;;;;5.62;100.00;101816.75;5067653;28;20064;-68
2023/03/20 07:23:18;;;;;;;28.15;11.65;;;;;;;5.67;100.00;101815.22;5078216;28;20040;-69
2023/03/20 07:25:44;;;;;;;29.33;12.13;;;;;;;5.73;100.00;101807.59;5067709;28;20024;-70
2023/03/20 07:28:10;;;;;;;28.55;12.20;;;;;;;5.81;100.00;101813.13;5073783;28;20028;-69
2023/03/20 07:30:35;;;;;;;28.92;11.40;;;;;;;5.84;100.00;101819.41;5074832;28;20035;-69
2023/03/20 07:33:01;;;;;;;27.83;11.60;;;;;;;5.91;100.00;101816.19;5061497;28;20035;-69
2023/03/20 07:35:26;;;;;;;25.23;11.48;;;;;;;5.93;100.00;101811.88;5067620;28;20029;-70
2023/03/20 07:37:51;;;;;;;26.90;11.45;;;;;;;6.01;100.00;101822.72;5068892;28;20029;-69
2023/03/20 07:40:17;;;;;;;26.30;11.65;;;;;;;5.96;100.00;101823.38;5071131;28;20047;-68
2023/03/20 07:42:43;;;;;;;26.83;11.57;;;;;;;6.03;100.00;101820.16;5065785;28;20050;-68
2023/03/20 07:45:09;;;;;;;25.08;10.90;;;;;;;5.96;100.00;101815.50;5070659;28;20035;-70
2023/03/20 07:47:35;;;;;;;26.77;11.35;;;;;;;5.97;100.00;101822.50;5066786;28;20037;-67
2023/03/20 07:50:00;;;;;;;26.73;11.80;;;;;;;5.98;100.00;101817.34;5071567;28;20036;-69
2023/03/20 07:52:26;;;;;;;26.40;11.43;;;;;;;5.96;100.00;101810.25;5071774;28;20024;-69
2023/03/20 07:54:51;;;;;;;26.60;11.27;;;;;;;6.04;100.00;101817.59;5067295;28;20032;-71
2023/03/20 07:57:17;;;;;;;27.55;11.57;;;;;;;6.06;100.00;101818.53;5073034;28;20496;-70
2023/03/20 07:59:42;;;;;;;26.85;10.88;;;;;;;6.07;100.00;101815.09;5072264;28;20099;-71
2023/03/20 08:02:14;;;;;;;25.85;10.57;;;;;;;6.10;100.00;101820.47;5067269;28;20035;-69
2023/03/20 08:04:40;;;;;;;26.80;10.65;;;;;;;6.16;100.00;101822.44;5073036;28;20028;-68
2023/03/20 08:07:05;;;;;;;26.45;10.63;;;;;;;6.20;100.00;101820.78;5067283;28;20044;-68
2023/03/20 08:09:30;;;;;;;26.30;11.18;;;;;;;6.17;100.00;101818.06;5076989;28;20056;-69
2023/03/20 08:11:56;;;;;;;26.80;10.77;;;;;;;6.19;100.00;101821.63;5072198;28;20051;-68
2023/03/20 08:14:21;;;;;;;25.05;10.50;;;;;;;6.15;100.00;101820.63;5069746;28;20471;-71
2023/03/20 08:16:47;;;;;;;25.48;10.15;;;;;;;6.20;100.00;101815.53;5069814;28;20418;-69
2023/03/20 08:19:12;;;;;;;26.05;10.55;;;;;;;6.17;100.00;101824.19;5068278;28;20390;-69
2023/03/20 08:21:37;;;;;;;26.08;11.02;;;;;;;6.16;100.00;101814.56;5071887;28;20030;-69
2023/03/20 08:24:03;;;;;;;25.92;10.73;;;;;;;6.18;100.00;101811.97;5064793;28;20017;-70
2023/03/20 08:26:28;;;;;;;25.15;9.85;;;;;;;6.25;100.00;101827.13;5070022;28;20025;-70
2023/03/20 08:28:54;;;;;;;23.98;9.77;;;;;;;6.28;100.00;101806.22;5072347;28;20020;-70
2023/03/20 08:31:20;;;;;;;25.80;9.75;;;;;;;6.36;100.00;101815.28;5073346;28;20071;-69
2023/03/20 08:33:46;;;;;;;25.55;9.68;;;;;;;6.43;100.00;101813.78;5068040;28;20040;-70
2023/03/20 08:36:13;;;;;;;26.70;9.60;;;;;;;6.54;100.00;101815.06;5069127;28;20021;-70
2023/03/20 08:38:39;;;;;;;24.98;9.30;;;;;;;6.59;100.00;101824.00;5068345;28;20036;-70
2023/03/20 08:41:05;;;;;;;27.58;10.07;;;;;;;6.60;100.00;101819.66;5077472;28;20044;-70
2023/03/20 08:43:31;;;;;;;25.08;10.02;;;;;;;6.57;100.00;101824.81;5064783;28;20021;-70
2023/03/20 08:45:56;;;;;;;24.58;9.10;;;;;;;6.62;100.00;101812.72;5071866;28;20046;-70
2023/03/20 08:48:22;;;;;;;24.30;9.05;;;;;;;6.63;100.00;101812.75;5070546;28;20040;-70
2023/03/20 08:50:47;;;;;;;24.75;9.52;;;;;;;6.68;100.00;101826.06;5070867;28;20373;-70
2023/03/20 08:53:12;;;;;;;24.83;8.98;;;;;;;6.71;100.00;101825.28;5074170;28;20035;-70
2023/03/20 08:55:38;;;;;;;24.15;8.52;;;;;;;6.75;100.00;101824.56;5067380;28;20031;-70
2023/03/20 08:58:03;;;;;;;24.95;9.55;;;;;;;6.77;100.00;101817.63;5065332;28;20032;-71
2023/03/20 09:00:28;;;;;;;26.60;9.82;;;;;;;6.83;100.00;101812.59;5070238;28;20032;-70
2023/03/20 09:02:54;;;;;;;25.20;9.43;;;;;;;6.83;100.00;101812.59;5072392;28;20029;-70
2023/03/20 09:05:19;;;;;;;24.25;9.20;;;;;;;6.84;100.00;101806.47;5072524;28;20031;-70
2023/03/20 09:07:45;;;;;;;25.08;9.88;;;;;;;6.80;100.00;101820.34;5072856;28;20031;-70
2023/03/20 09:10:11;;;;;;;24.02;9.38;;;;;;;6.80;100.00;101830.84;5072469;28;20029;-71
2023/03/20 09:12:36;;;;;;;24.13;9.77;;;;;;;6.74;100.00;101815.78;5072073;28;20052;-72
2023/03/20 09:15:03;;;;;;;25.45;10.45;;;;;;;6.44;100.00;101821.72;5071119;28;20111;-71
2023/03/20 09:17:30;;;;;;;26.20;10.88;;;;;;;6.18;100.00;101825.09;5072419;28;20036;-71
2023/03/20 09:19:56;;;;;;;27.05;11.38;;;;;;;6.03;100.00;101833.28;5072073;28;20386;-71
2023/03/20 09:22:21;;;;;;;25.92;10.82;;;;;;;5.81;100.00;101835.03;5072184;28;20111;-71
2023/03/20 09:24:46;;;;;;;27.42;11.50;;;;;;;5.70;100.00;101833.72;5072385;28;20025;-72
2023/03/20 09:27:15;;;;;;;26.58;11.40;;;;;;;5.56;100.00;101839.31;5072413;28;20060;-71
2023/03/20 09:29:41;;;;;;;27.05;11.93;;;;;;;5.45;100.00;101848.47;5074462;28;20028;-71
2023/03/20 09:32:07;;;;;;;28.13;12.52;;;;;;;5.35;100.00;101828.81;5076137;28;20038;-71
2023/03/20 09:34:33;;;;;;;30.20;13.63;;;;;;;5.31;100.00;101836.50;5075820;28;20468;-70
2023/03/20 09:37:01;;;;;;;29.75;13.15;;;;;;;5.32;100.00;101831.31;5074596;28;20116;-71
2023/03/20 09:39:26;;;;;;;29.15;13.30;;;;;;;5.35;100.00;101841.03;5076128;28;20075;-70
2023/03/20 09:41:52;;;;;;;31.65;12.55;;;;;;;5.42;100.00;101829.97;5075854;28;20107;-71
2023/03/20 09:44:49;;;;;;;30.48;14.20;;;;;;;5.40;100.00;101836.88;5075997;28;20033;-71
2023/03/20 09:47:53;;;;;;;29.17;13.57;;;;;;;5.45;100.00;101832.72;5075433;28;20077;-69
2023/03/20 09:50:31;;;;;;;29.40;13.65;;;;;;;5.46;100.00;101825.75;5045062;28;20111;-70
2023/03/20 09:52:59;;;;;;;30.00;14.60;;;;;;;5.53;100.00;101839.19;5073082;28;20021;-70
2023/03/20 09:55:39;;;;;;;31.20;14.63;;;;;;;5.62;100.00;101836.03;5075446;28;20029;-70
2023/03/20 09:58:12;;;;;;;30.90;14.95;;;;;;;5.56;100.00;101828.81;5075467;28;20171;-70
2023/03/20 10:00:41;;;;;;;28.55;13.85;;;;;;;5.59;100.00;101828.94;5075316;28;20139;-70
2023/03/20 10:03:34;;;;;;;29.85;13.32;;;;;;;5.51;100.00;101829.47;5075555;28;20475;-69
2023/03/20 10:06:03;;;;;;;29.83;13.73;;;;;;;5.53;100.00;101831.31;5073317;28;20043;-70
2023/03/20 10:08:33;;;;;;;27.98;13.00;;;;;;;5.52;100.00;101828.59;5075244;28;20035;-70
2023/03/20 10:11:07;;;;;;;29.83;13.65;;;;;;;5.61;100.00;101830.69;5075241;28;20024;-70
2023/03/20 10:14:01;;;;;;;30.15;13.10;;;;;;;5.62;100.00;101830.78;5074989;28;20048;-67
2023/03/20 10:16:58;;;;;;;29.33;12.60;;;;;;;5.65;100.00;101827.38;5072616;28;20111;-67
2023/03/20 10:19:38;;;;;;;29.05;12.68;;;;;;;5.64;100.00;101820.38;5071856;28;20432;-69
2023/03/20 10:22:25;;;;;;;29.75;12.63;;;;;;;5.64;100.00;101815.13;5075115;28;20525;-67
2023/03/20 10:25:02;;;;;;;28.98;12.40;;;;;;;5.73;100.00;101815.47;5071751;28;20086;-67
2023/03/20 10:27:38;;;;;;;27.85;12.90;;;;;;;5.82;100.00;101810.56;5074863;28;20039;-68
2023/03/20 10:30:45;;;;;;;34.35;14.23;;;;;;;6.06;100.00;101815.03;5067916;28;20037;-69
2023/03/20 10:33:45;;;;;;;30.70;14.35;;;;;;;6.32;100.00;101817.72;5072473;28;20045;-67
2023/03/20 10:36:20;;;;;;;27.98;11.77;;;;;;;6.24;100.00;101815.72;5073084;28;20039;-68
2023/03/20 10:39:00;;;;;;;27.08;12.35;;;;;;;6.25;100.00;101814.88;5072882;28;20032;-67
2023/03/20 10:41:34;;;;;;;27.85;12.02;;;;;;;6.16;100.00;101801.44;5069740;28;20494;-66
2023/03/20 10:44:01;;;;;;;27.02;12.05;;;;;;;6.11;100.00;101806.47;5071286;28;20039;-67
2023/03/20 10:46:28;;;;;;;29.67;12.57;;;;;;;6.09;100.00;101800.28;5074651;28;20028;-67
2023/03/20 10:49:20;;;;;;;27.67;11.30;;;;;;;6.11;100.00;101814.34;5070699;28;20029;-67
2023/03/20 10:51:52;;;;;;;28.15;12.57;;;;;;;6.21;100.00;101810.34;5074003;28;20116;-66
2023/03/20 10:54:21;;;;;;;31.67;13.57;;;;;;;6.40;100.00;101811.03;5074522;28;20027;-66
2023/03/20 10:56:48;;;;;;;26.92;11.40;;;;;;;6.36;100.00;101814.38;5074606;28;20032;-66
2023/03/20 10:59:37;;;;;;;27.52;12.07;;;;;;;6.41;100.00;101820.72;5074713;28;20391;-66
2023/03/20 11:02:13;;;;;;;29.15;11.70;;;;;;;6.40;100.00;101811.03;5071463;28;20032;-66
2023/03/20 11:04:39;;;;;;;29.73;12.65;;;;;;;6.48;100.00;101806.97;5074336;28;20149;-66
2023/03/20 11:07:25;;;;;;;30.10;12.77;;;;;;;6.52;100.00;101802.72;5074307;28;20055;-66
2023/03/20 11:10:07;;;;;;;27.20;12.32;;;;;;;6.60;100.00;101804.78;5074124;28;20392;-66
2023/03/20 11:12:39;;;;;;;28.25;11.90;;;;;;;6.48;100.00;101798.19;5069877;28;20045;-67
2023/03/20 11:15:32;;;;;;;26.17;11.32;;;;;;;6.56;100.00;101795.00;5073944;28;20024;-66
2023/03/20 11:18:04;;;;;;;29.65;11.55;;;;;;;6.59;100.00;101786.34;5070495;28;20033;-70
2023/03/20 11:20:38;;;;;;;28.02;11.32;;;;;;;6.71;100.00;101786.75;5070951;28;20382;-67
2023/03/20 11:23:06;;;;;;;26.52;10.68;;;;;;;6.79;100.00;101782.66;5074051;28;20035;-66